TimeEST,TemperatureF,Dew PointF,Humidity,Sea Level PressureIn,VisibilityMPH,Wind Direction,Wind SpeedMPH,Gust SpeedMPH,PrecipitationIn,Events,Conditions,WindDirDegrees,DateUTC
12:16 AM,53.6,30.2,41,30.19,10.0,West,23.0,42.6,N/A,,Clear,280,2004-01-01 05:16:00
12:36 AM,53.6,30.2,41,30.20,10.0,West,18.4,36.8,N/A,,Clear,270,2004-01-01 05:36:00
12:56 AM,53.6,30.2,41,30.20,10.0,West,29.9,39.1,N/A,,Clear,270,2004-01-01 05:56:00
1:16 AM,53.6,30.2,41,30.22,10.0,West,18.4,29.9,N/A,,Clear,280,2004-01-01 06:16:00
1:36 AM,51.8,30.2,44,30.23,10.0,SSW,15.0,28.8,N/A,,Clear,210,2004-01-01 06:36:00
1:58 AM,53.6,32.0,44,30.24,10.0,NW,4.6,16.1,N/A,,Clear,310,2004-01-01 06:58:00
2:17 AM,53.6,32.0,44,30.25,10.0,WNW,3.5,-,N/A,,Clear,290,2004-01-01 07:17:00
2:37 AM,51.8,32.0,47,30.26,10.0,WNW,4.6,-,N/A,,Clear,290,2004-01-01 07:37:00
2:56 AM,51.8,32.0,47,30.27,10.0,ENE,3.5,-,N/A,,Clear,70,2004-01-01 07:56:00
3:16 AM,46.4,32.0,57,30.28,10.0,ENE,3.5,-,N/A,,Clear,70,2004-01-01 08:16:00
3:36 AM,44.6,30.2,57,30.28,10.0,Calm,Calm,-,N/A,,Clear,0,2004-01-01 08:36:00
3:59 AM,48.2,33.8,58,30.28,10.0,Calm,Calm,-,N/A,,Clear,0,2004-01-01 08:59:00
4:17 AM,44.6,33.8,66,30.28,10.0,NNE,4.6,-,N/A,,Clear,20,2004-01-01 09:17:00
4:36 AM,42.8,33.8,70,30.28,10.0,WSW,3.5,-,N/A,,Clear,250,2004-01-01 09:36:00
4:56 AM,42.8,32.0,66,30.29,10.0,Calm,Calm,-,N/A,,Clear,0,2004-01-01 09:56:00
5:16 AM,39.2,30.2,70,30.29,10.0,Calm,Calm,-,N/A,,Clear,0,2004-01-01 10:16:00
5:36 AM,42.8,33.8,70,30.30,10.0,Calm,Calm,-,N/A,,Clear,0,2004-01-01 10:36:00
5:57 AM,44.6,33.8,66,30.31,10.0,Calm,Calm,-,N/A,,Clear,0,2004-01-01 10:57:00
6:16 AM,44.6,33.8,66,30.31,10.0,Calm,Calm,-,N/A,,Clear,0,2004-01-01 11:16:00
6:39 AM,46.4,33.8,62,30.32,10.0,Calm,Calm,-,N/A,,Clear,0,2004-01-01 11:39:00
6:57 AM,39.2,33.8,81,30.34,10.0,West,3.5,-,N/A,,Clear,280,2004-01-01 11:57:00
7:17 AM,39.2,30.2,70,30.34,10.0,WNW,3.5,-,N/A,,Clear,290,2004-01-01 12:17:00
7:38 AM,42.8,33.8,70,30.35,10.0,West,3.5,-,N/A,,Clear,280,2004-01-01 12:38:00
7:57 AM,41.0,33.8,76,30.37,10.0,Calm,Calm,-,N/A,,Clear,0,2004-01-01 12:57:00
8:17 AM,41.0,33.8,76,30.37,10.0,East,3.5,-,N/A,,Clear,100,2004-01-01 13:17:00
8:37 AM,42.8,35.6,76,30.38,10.0,Calm,Calm,-,N/A,,Clear,0,2004-01-01 13:37:00
8:57 AM,42.8,35.6,76,30.39,10.0,Calm,Calm,-,N/A,,Clear,0,2004-01-01 13:57:00
9:17 AM,46.4,35.6,66,30.39,10.0,West,3.5,-,N/A,,Clear,270,2004-01-01 14:17:00
9:37 AM,53.6,37.4,54,30.39,10.0,West,5.8,-,N/A,,Clear,280,2004-01-01 14:37:00
9:57 AM,53.6,37.4,54,30.39,10.0,West,8.1,-,N/A,,Clear,270,2004-01-01 14:57:00
10:17 AM,53.6,37.4,54,30.38,10.0,West,5.8,-,N/A,,Clear,260,2004-01-01 15:17:00
10:37 AM,51.8,37.4,58,30.39,10.0,SW,3.5,-,N/A,,Clear,220,2004-01-01 15:37:00
10:56 AM,53.6,37.4,54,30.39,10.0,Calm,Calm,-,N/A,,Clear,0,2004-01-01 15:56:00
11:17 AM,55.4,37.4,51,30.38,10.0,SSE,3.5,-,N/A,,Clear,160,2004-01-01 16:17:00
11:36 AM,55.4,37.4,51,30.37,10.0,ESE,3.5,-,N/A,,Clear,110,2004-01-01 16:36:00
11:57 AM,55.4,35.6,47,30.36,10.0,Calm,Calm,-,N/A,,Clear,0,2004-01-01 16:57:00
12:17 PM,57.2,37.4,48,30.35,10.0,East,4.6,-,N/A,,Clear,90,2004-01-01 17:17:00
12:36 PM,57.2,37.4,48,30.34,10.0,ESE,3.5,-,N/A,,Clear,110,2004-01-01 17:36:00
12:57 PM,55.4,35.6,47,30.33,10.0,SE,5.8,-,N/A,,Clear,130,2004-01-01 17:57:00
1:17 PM,59.0,37.4,45,30.32,10.0,East,6.9,-,N/A,,Clear,100,2004-01-01 18:17:00
1:38 PM,57.2,35.6,44,30.31,10.0,East,3.5,-,N/A,,Clear,100,2004-01-01 18:38:00
1:57 PM,59.0,35.6,42,30.31,10.0,ESE,5.8,-,N/A,,Clear,110,2004-01-01 18:57:00
2:17 PM,60.8,35.6,39,30.30,10.0,East,5.8,-,N/A,,Clear,80,2004-01-01 19:17:00
2:37 PM,60.8,35.6,39,30.29,10.0,East,3.5,-,N/A,,Clear,90,2004-01-01 19:37:00
2:57 PM,60.8,35.6,39,30.29,10.0,Calm,Calm,-,N/A,,Clear,0,2004-01-01 19:57:00
3:16 PM,62.6,37.4,39,30.29,10.0,East,3.5,-,N/A,,Clear,90,2004-01-01 20:16:00
3:37 PM,62.6,37.4,39,30.28,10.0,Calm,Calm,-,N/A,,Clear,0,2004-01-01 20:37:00
3:57 PM,62.6,37.4,39,30.28,10.0,Calm,Calm,-,N/A,,Clear,0,2004-01-01 20:57:00
4:17 PM,60.8,35.6,39,30.27,10.0,Calm,Calm,-,N/A,,Clear,0,2004-01-01 21:17:00
4:37 PM,55.4,37.4,51,30.27,10.0,SE,3.5,-,N/A,,Clear,130,2004-01-01 21:37:00
4:58 PM,50.0,39.2,66,30.28,10.0,West,4.6,-,N/A,,Scattered Clouds,280,2004-01-01 21:58:00
5:17 PM,50.0,39.2,66,30.30,10.0,West,5.8,-,N/A,,Scattered Clouds,280,2004-01-01 22:17:00
5:37 PM,46.4,39.2,76,30.29,10.0,Calm,Calm,-,N/A,,Mostly Cloudy,0,2004-01-01 22:37:00
5:57 PM,46.4,39.2,76,30.29,10.0,Calm,Calm,-,N/A,,Overcast,0,2004-01-01 22:57:00
6:17 PM,46.4,39.2,76,30.28,10.0,Calm,Calm,-,N/A,,Overcast,0,2004-01-01 23:17:00
6:37 PM,46.4,39.2,76,30.27,10.0,Calm,Calm,-,N/A,,Overcast,0,2004-01-01 23:37:00
6:57 PM,48.2,42.8,82,30.26,10.0,Calm,Calm,-,N/A,,Overcast,0,2004-01-01 23:57:00
7:17 PM,48.2,42.8,82,30.26,10.0,Calm,Calm,-,N/A,,Overcast,0,2004-01-02 00:17:00
7:38 PM,46.4,42.8,87,30.26,10.0,Calm,Calm,-,N/A,,Overcast,0,2004-01-02 00:38:00
7:56 PM,46.4,41.0,81,30.26,10.0,WSW,3.5,-,N/A,,Overcast,250,2004-01-02 00:56:00
8:17 PM,46.4,39.2,76,30.24,10.0,Calm,Calm,-,N/A,,Overcast,0,2004-01-02 01:17:00
8:37 PM,46.4,41.0,81,30.25,10.0,West,5.8,-,N/A,,Overcast,280,2004-01-02 01:37:00
8:57 PM,48.2,42.8,82,30.25,10.0,Calm,Calm,-,N/A,,Overcast,0,2004-01-02 01:57:00
9:18 PM,48.2,42.8,82,30.25,10.0,Calm,Calm,-,N/A,,Overcast,0,2004-01-02 02:18:00
9:37 PM,48.2,42.8,82,30.25,10.0,NW,3.5,-,N/A,,Overcast,310,2004-01-02 02:37:00
9:59 PM,48.2,42.8,82,30.24,10.0,Calm,Calm,-,N/A,,Overcast,0,2004-01-02 02:59:00
10:17 PM,44.6,41.0,87,30.24,10.0,Calm,Calm,-,N/A,,Overcast,0,2004-01-02 03:17:00
10:37 PM,44.6,41.0,87,30.23,10.0,Calm,Calm,-,N/A,,Overcast,0,2004-01-02 03:37:00
10:57 PM,46.4,42.8,87,30.22,10.0,Calm,Calm,-,N/A,,Overcast,0,2004-01-02 03:57:00
11:17 PM,46.4,42.8,87,30.20,10.0,Calm,Calm,-,N/A,,Overcast,0,2004-01-02 04:17:00
11:37 PM,46.4,42.8,87,30.18,10.0,Calm,Calm,-,N/A,,Overcast,0,2004-01-02 04:37:00
11:57 PM,48.2,41.0,76,30.17,10.0,Calm,Calm,-,N/A,,Overcast,0,2004-01-02 04:57:00